createdAt,value
2023-03-02T19:08:58.743Z,12.65
2023-03-02T19:11:25.512Z,13.00
2023-03-02T19:13:52.332Z,12.95
2023-03-02T19:16:19.146Z,13.95
2023-03-02T19:18:46.497Z,14.73
2023-03-02T19:21:13.206Z,23.30
2023-03-02T19:23:40.962Z,14.52
2023-03-02T19:26:08.340Z,13.02
2023-03-02T19:28:36.185Z,14.65
2023-03-02T19:31:08.925Z,12.93
2023-03-02T19:33:36.060Z,14.30
2023-03-02T19:36:03.259Z,14.17
2023-03-02T19:38:29.992Z,10.60
2023-03-02T19:40:58.236Z,13.85
2023-03-02T19:43:26.550Z,15.98
2023-03-02T19:45:53.224Z,14.43
2023-03-02T19:48:20.641Z,16.55
2023-03-02T19:50:47.970Z,16.77
2023-03-02T19:53:15.977Z,15.45
2023-03-02T19:58:12.867Z,17.60
2023-03-02T20:00:39.498Z,16.30
2023-03-02T20:03:08.613Z,16.77
2023-03-02T20:05:36.514Z,17.35
2023-03-02T20:08:03.384Z,16.77
2023-03-02T20:10:33.650Z,17.70
2023-03-02T20:13:01.079Z,17.27
2023-03-02T20:15:30.168Z,18.00
2023-03-02T20:17:59.476Z,17.95
2023-03-02T20:20:27.119Z,19.33
2023-03-02T20:22:53.928Z,19.10
2023-03-02T20:25:21.455Z,19.52
2023-03-02T20:27:49.322Z,17.73
2023-03-02T20:30:22.479Z,18.30
2023-03-02T20:32:49.450Z,19.48
2023-03-02T20:35:16.376Z,19.58
2023-03-02T20:37:44.696Z,19.85
2023-03-02T20:40:12.248Z,20.38
2023-03-02T20:42:40.772Z,19.48
2023-03-02T20:45:09.390Z,20.65
2023-03-02T20:47:36.370Z,19.70
2023-03-02T20:50:04.968Z,19.73
2023-03-02T20:52:31.584Z,20.02
2023-03-02T20:54:58.301Z,21.90
2023-03-02T20:57:25.285Z,20.27
2023-03-02T20:59:52.063Z,20.63
2023-03-02T21:02:20.287Z,19.50
2023-03-02T21:04:47.802Z,20.92
2023-03-02T21:07:15.131Z,21.48
2023-03-02T21:09:42.916Z,19.90
2023-03-02T21:12:12.000Z,20.58
2023-03-02T21:14:39.990Z,21.08
2023-03-02T21:17:07.303Z,22.13
2023-03-02T21:19:34.695Z,20.20
2023-03-02T21:22:01.744Z,21.05
2023-03-02T21:24:28.555Z,21.43
2023-03-02T21:26:55.783Z,21.88
2023-03-02T21:29:24.861Z,21.23
2023-03-02T21:31:51.636Z,21.35
2023-03-02T21:34:19.270Z,21.63
2023-03-02T21:36:46.414Z,20.88
2023-03-02T21:39:13.654Z,21.87
2023-03-02T21:41:40.579Z,21.70
2023-03-02T21:44:07.289Z,16.40
2023-03-02T21:46:35.674Z,22.88
2023-03-02T21:49:02.412Z,22.23
2023-03-02T21:51:29.104Z,22.20
2023-03-02T21:53:55.705Z,22.67
2023-03-02T21:56:25.441Z,21.98
2023-03-02T21:58:54.608Z,21.60
2023-03-02T22:01:21.783Z,22.33
2023-03-02T22:03:49.064Z,22.17
2023-03-02T22:06:27.738Z,22.77
2023-03-02T22:08:55.909Z,22.95
2023-03-02T22:11:35.245Z,22.23
2023-03-02T22:14:13.815Z,22.40
2023-03-02T22:16:43.370Z,22.88
2023-03-02T22:19:19.078Z,22.65
2023-03-02T22:21:48.788Z,22.52
2023-03-02T22:24:20.535Z,24.13
2023-03-02T22:26:57.208Z,23.67
2023-03-02T22:29:42.948Z,24.40
2023-03-02T22:32:21.449Z,22.90
2023-03-02T22:34:50.954Z,24.25
2023-03-02T22:37:24.072Z,23.73
2023-03-02T22:39:55.206Z,24.83
2023-03-02T22:42:25.226Z,23.77
2023-03-02T22:45:30.597Z,25.58
2023-03-02T22:48:01.524Z,24.88
2023-03-02T22:50:30.689Z,25.50
2023-03-02T22:53:01.028Z,25.98
2023-03-02T22:55:41.373Z,25.45
2023-03-02T22:58:20.302Z,25.52
2023-03-02T23:00:58.017Z,24.95
2023-03-02T23:06:00.697Z,26.50
2023-03-02T23:08:31.952Z,28.02
2023-03-02T23:11:19.457Z,27.88
2023-03-02T23:13:53.376Z,28.40
2023-03-02T23:16:47.033Z,28.05
2023-03-02T23:19:14.051Z,27.38
2023-03-02T23:22:04.398Z,28.20
2023-03-02T23:24:37.360Z,28.10
2023-03-02T23:27:52.289Z,27.73
